Portada
METAR-TAF:

METAR-TAF

Aeropuertos :

Mafikeng, Sudáfrica

latitud: 25-47S, longitud: 025-32E, altitud: 1281 m

Observación

El informe se hizo hace 14 minutos, a las 14:00 UTC
Viento 1 kt del oeste
Temperatura 31°C
Humedad 19%
Presión 1021 hPa

METAR: FAMM 231400Z AUTO 27001KT //// // ////// 31/05 Q1021

Hora: 16:14 (14:14 UTC)

Pronóstico

El informe se hizo hace 5 horas y 14 minutos, a las 09:00 UTC
Pronóstico válido del 23 a las 10 UTC al 23 a las 18 UTC
Viento 3 kt con dirección variable
Visibilidad 10 km o más
sin nubes por debajo de 1500 m y sin presencia de cumulonimbus.

TAF: FAMM 230900Z 2310/2318 VRB03KT CAVOK TX31/2313Z TN20/2318Z

Observaciones y pronósticos meteorológicos de más de 4000 aeropuertos (mensajes METAR y TAF).

Los puntos amarillos y rojos representan las estaciones disponibles.

Ponga el ratón en el punto deseado para ver el nombre de la estación.

Haga clic para ver las observaciones y los pronósticos meteorológicos.

Para cambiar el mapa : haga clic en los botones verdes con una cruz de color negro para hacer un zoom, en el botón verde con un guión para alejar o en las flechas verdes para mapas adyacentes.


METAR-TAF: